createdAt,value
2018-10-02T00:00:57.132Z,7.35
2018-10-02T00:06:00.415Z,7.40
2018-10-02T00:11:09.028Z,7.40
2018-10-02T00:16:12.327Z,7.47
2018-10-02T00:21:15.641Z,7.57
2018-10-02T00:26:18.931Z,7.62
2018-10-02T00:31:22.256Z,7.66
2018-10-02T00:36:25.624Z,7.65
2018-10-02T00:41:28.940Z,7.70
2018-10-02T00:46:32.500Z,7.79
2018-10-02T00:51:35.816Z,7.81
2018-10-02T00:56:39.124Z,7.87
2018-10-02T01:01:42.396Z,7.88
2018-10-02T01:06:45.691Z,7.87
2018-10-02T01:11:48.979Z,7.89
2018-10-02T01:16:52.269Z,7.97
2018-10-02T01:21:55.536Z,8.00
2018-10-02T01:26:58.823Z,8.01
2018-10-02T01:32:02.120Z,7.91
2018-10-02T01:37:05.415Z,7.92
2018-10-02T01:42:08.740Z,7.87
2018-10-02T01:47:12.027Z,7.88
2018-10-02T01:52:15.315Z,7.90
2018-10-02T01:57:18.588Z,7.85
2018-10-02T02:02:21.875Z,7.83
2018-10-02T02:07:25.165Z,7.80
2018-10-02T02:12:28.471Z,7.80
2018-10-02T02:17:31.780Z,7.79
2018-10-02T02:22:35.128Z,7.82
2018-10-02T02:27:38.412Z,7.78
2018-10-02T02:32:41.696Z,7.82
2018-10-02T02:37:45.048Z,7.82
2018-10-02T02:42:48.295Z,7.83
2018-10-02T02:47:56.984Z,7.86
2018-10-02T02:53:04.053Z,7.80
2018-10-02T02:58:07.337Z,7.79
2018-10-02T03:03:10.623Z,7.79
2018-10-02T03:08:13.905Z,7.71
2018-10-02T03:13:17.176Z,7.67
2018-10-02T03:18:20.488Z,7.62
2018-10-02T03:23:23.800Z,7.57
2018-10-02T03:28:27.092Z,7.52
2018-10-02T03:33:30.420Z,7.49
2018-10-02T03:38:33.719Z,7.45
2018-10-02T03:43:37.017Z,7.46
2018-10-02T03:48:40.321Z,7.46
2018-10-02T03:53:43.607Z,7.44
2018-10-02T03:58:46.892Z,7.52
2018-10-02T04:03:50.191Z,7.50
2018-10-02T04:08:53.515Z,7.52
2018-10-02T04:13:56.921Z,7.50
2018-10-02T04:19:00.251Z,7.49
2018-10-02T04:24:05.172Z,7.39
2018-10-02T04:29:08.508Z,7.30
2018-10-02T04:34:11.863Z,7.27
2018-10-02T04:39:15.077Z,7.23
2018-10-02T04:44:18.343Z,7.19
2018-10-02T04:49:21.643Z,7.30
2018-10-02T04:54:24.972Z,7.36
2018-10-02T04:59:28.550Z,7.37
2018-10-02T05:04:31.863Z,7.40
2018-10-02T05:09:35.160Z,7.43
2018-10-02T05:14:38.449Z,7.42
2018-10-02T05:19:41.805Z,7.42
2018-10-02T05:24:45.113Z,7.43
2018-10-02T05:29:48.417Z,7.47
2018-10-02T05:34:51.783Z,7.52
2018-10-02T05:39:55.040Z,7.53
2018-10-02T05:44:58.304Z,7.57
2018-10-02T05:50:01.589Z,7.63
2018-10-02T05:55:05.865Z,7.67
2018-10-02T06:00:09.266Z,7.74
2018-10-02T06:05:12.580Z,7.73
2018-10-02T06:10:15.873Z,7.70
2018-10-02T06:15:19.168Z,7.66
2018-10-02T06:20:22.452Z,7.66
2018-10-02T06:25:25.745Z,7.65
2018-10-02T06:30:29.109Z,7.78
2018-10-02T06:35:32.362Z,7.94
2018-10-02T06:40:35.667Z,8.09
2018-10-02T06:45:38.977Z,8.35
2018-10-02T06:50:42.282Z,8.64
2018-10-02T06:55:45.564Z,8.78
2018-10-02T07:00:48.949Z,8.83
2018-10-02T07:05:52.229Z,9.09
2018-10-02T07:10:55.510Z,9.27
2018-10-02T07:15:58.783Z,9.26
2018-10-02T07:21:02.100Z,9.10
2018-10-02T07:26:05.368Z,9.13
2018-10-02T07:31:08.738Z,9.22
2018-10-02T07:36:11.976Z,9.33
2018-10-02T07:41:15.249Z,9.51
2018-10-02T07:46:18.545Z,9.68
2018-10-02T07:51:21.821Z,9.97
2018-10-02T07:56:25.162Z,10.09
2018-10-02T08:01:28.454Z,10.07
2018-10-02T08:06:31.741Z,10.02
2018-10-02T08:11:35.026Z,10.06
2018-10-02T08:16:38.805Z,10.12
2018-10-02T08:21:42.081Z,10.32
2018-10-02T08:26:45.433Z,10.43
2018-10-02T08:31:48.689Z,10.50
2018-10-02T08:36:51.970Z,10.52
2018-10-02T08:41:55.314Z,10.44
2018-10-02T08:46:58.581Z,10.82
2018-10-02T08:52:01.907Z,11.15
2018-10-02T08:57:05.500Z,11.30
2018-10-02T09:02:08.793Z,11.05
2018-10-02T09:07:12.077Z,10.94
2018-10-02T09:12:15.368Z,10.85
2018-10-02T09:17:18.652Z,10.98
2018-10-02T09:22:21.941Z,11.15
2018-10-02T09:27:25.236Z,11.28
2018-10-02T09:32:33.750Z,11.33
2018-10-02T09:37:42.413Z,11.42
2018-10-02T09:42:51.015Z,11.53
2018-10-02T09:47:54.341Z,11.59
2018-10-02T09:52:57.628Z,11.73
2018-10-02T09:58:00.953Z,11.89
2018-10-02T10:03:04.343Z,11.84
2018-10-02T10:08:07.584Z,11.57
2018-10-02T10:13:10.874Z,11.20
2018-10-02T10:18:14.148Z,11.05
2018-10-02T10:23:17.445Z,10.80
2018-10-02T10:28:20.737Z,10.69
2018-10-02T10:33:24.035Z,10.62
2018-10-02T10:38:27.384Z,10.53
2018-10-02T10:43:30.698Z,10.51
2018-10-02T10:48:33.978Z,10.46
2018-10-02T10:53:37.288Z,10.31
2018-10-02T10:58:40.680Z,10.28
2018-10-02T11:03:43.921Z,10.42
2018-10-02T11:08:47.260Z,10.66
2018-10-02T11:13:50.598Z,10.78
2018-10-02T11:18:53.905Z,10.99
2018-10-02T11:23:57.410Z,11.04
2018-10-02T11:29:00.716Z,10.72
2018-10-02T11:34:04.005Z,10.48
2018-10-02T11:39:07.309Z,10.37
2018-10-02T11:44:10.651Z,10.33
2018-10-02T11:49:13.992Z,10.27
2018-10-02T11:54:17.240Z,10.27
2018-10-02T11:59:20.558Z,10.26
2018-10-02T12:04:23.853Z,10.28
2018-10-02T12:09:27.247Z,10.43
2018-10-02T12:14:30.772Z,10.51
2018-10-02T12:19:34.108Z,10.70
2018-10-02T12:24:37.317Z,10.88
2018-10-02T12:29:40.616Z,10.90
2018-10-02T12:34:43.916Z,10.89
2018-10-02T12:39:48.275Z,10.91
2018-10-02T12:44:51.640Z,11.05
2018-10-02T12:49:54.996Z,11.04
2018-10-02T12:54:58.316Z,10.98
2018-10-02T13:00:01.625Z,10.87
2018-10-02T13:05:05.875Z,10.84
2018-10-02T13:10:09.246Z,10.78
2018-10-02T13:15:12.544Z,10.76
2018-10-02T13:20:15.873Z,10.74
2018-10-02T13:25:19.241Z,10.63
2018-10-02T13:30:22.604Z,10.49
2018-10-02T13:35:25.908Z,10.50
2018-10-02T13:40:29.225Z,10.49
2018-10-02T13:45:32.719Z,10.57
2018-10-02T13:50:36.011Z,10.58
2018-10-02T13:55:39.350Z,10.80
2018-10-02T14:00:43.252Z,10.70
2018-10-02T14:05:46.576Z,10.50
2018-10-02T14:10:49.967Z,10.33
2018-10-02T14:15:53.585Z,10.06
2018-10-02T14:20:56.891Z,9.91
2018-10-02T14:31:27.701Z,9.75
2018-10-02T14:36:31.062Z,9.71
2018-10-02T14:41:34.360Z,9.74
2018-10-02T14:46:38.479Z,9.77
2018-10-02T14:51:42.198Z,9.82
2018-10-02T14:56:45.555Z,9.84
2018-10-02T15:01:49.329Z,9.87
2018-10-02T15:06:53.004Z,9.91
2018-10-02T15:11:56.413Z,9.88
2018-10-02T15:16:59.785Z,9.86
2018-10-02T15:22:03.263Z,9.88
2018-10-02T15:27:06.651Z,9.90
2018-10-02T15:32:09.967Z,9.93
2018-10-02T15:37:13.284Z,9.89
2018-10-02T15:42:16.681Z,9.95
2018-10-02T15:47:19.984Z,9.97
2018-10-02T15:52:23.404Z,9.99
2018-10-02T15:57:26.762Z,10.01
2018-10-02T16:02:30.149Z,10.04
2018-10-02T16:07:33.453Z,10.08
2018-10-02T16:12:36.872Z,10.09
2018-10-02T16:17:40.264Z,10.09
2018-10-02T16:22:43.729Z,10.10
2018-10-02T16:27:47.145Z,10.12
2018-10-02T16:32:50.472Z,10.12
2018-10-02T16:37:53.908Z,10.07
2018-10-02T16:42:57.268Z,9.83
2018-10-02T16:48:00.661Z,9.67
2018-10-02T16:53:04.000Z,9.56
2018-10-02T16:58:07.578Z,9.48
2018-10-02T17:03:10.951Z,9.43
2018-10-02T17:08:14.299Z,9.35
2018-10-02T17:13:17.665Z,9.25
2018-10-02T17:18:21.077Z,9.24
2018-10-02T17:23:24.677Z,9.32
2018-10-02T17:28:28.888Z,9.45
2018-10-02T17:33:33.763Z,9.59
2018-10-02T17:38:37.301Z,9.74
2018-10-02T17:43:40.593Z,9.79
2018-10-02T17:48:43.905Z,9.82
2018-10-02T17:53:47.268Z,9.82
2018-10-02T17:58:50.829Z,9.83
2018-10-02T18:03:54.270Z,9.83
2018-10-02T18:08:57.595Z,9.83
2018-10-02T18:14:00.896Z,9.86
2018-10-02T18:19:05.080Z,9.86
2018-10-02T18:24:08.474Z,9.88
2018-10-02T18:29:12.117Z,9.90
2018-10-02T18:34:15.482Z,9.92
2018-10-02T18:39:18.888Z,9.95
2018-10-02T18:44:22.334Z,9.98
2018-10-02T18:49:25.696Z,10.00
2018-10-02T18:54:29.046Z,10.03
2018-10-02T18:59:32.473Z,10.07
2018-10-02T19:04:35.888Z,10.09
2018-10-02T19:09:39.233Z,10.11
2018-10-02T19:14:42.530Z,10.15
2018-10-02T19:19:52.987Z,10.21
2018-10-02T19:25:01.765Z,10.27
2018-10-02T19:30:11.084Z,10.32
2018-10-02T19:35:15.202Z,10.34
2018-10-02T19:40:18.713Z,10.38
2018-10-02T19:45:27.384Z,10.42
2018-10-02T19:50:30.697Z,10.47
2018-10-02T19:55:34.140Z,10.51
2018-10-02T20:00:37.672Z,10.54
2018-10-02T20:05:40.980Z,10.56
2018-10-02T20:10:44.300Z,10.59
2018-10-02T20:15:47.802Z,10.62
2018-10-02T20:20:51.096Z,10.65
2018-10-02T20:25:54.654Z,10.69
2018-10-02T20:30:58.362Z,10.73
2018-10-02T20:36:01.930Z,10.76
2018-10-02T20:41:05.384Z,10.75
2018-10-02T20:46:08.756Z,10.76
2018-10-02T20:51:12.162Z,10.77
2018-10-02T20:56:15.559Z,10.79
2018-10-02T21:01:19.004Z,10.82
2018-10-02T21:06:22.319Z,10.84
2018-10-02T21:11:25.815Z,10.84
2018-10-02T21:16:29.301Z,10.84
2018-10-02T21:21:32.761Z,10.82
2018-10-02T21:26:36.045Z,10.80
2018-10-02T21:31:39.688Z,10.81
2018-10-02T21:36:43.216Z,10.82
2018-10-02T21:41:46.552Z,10.84
2018-10-02T21:46:49.879Z,10.84
2018-10-02T21:51:53.351Z,10.85
2018-10-02T21:56:56.837Z,10.86
2018-10-02T22:02:00.255Z,10.86
2018-10-02T22:07:03.709Z,10.89
2018-10-02T22:12:07.106Z,10.89
2018-10-02T22:17:10.489Z,10.88
2018-10-02T22:22:13.840Z,10.90
2018-10-02T22:27:17.136Z,10.92
2018-10-02T22:32:20.544Z,10.93
2018-10-02T22:37:23.909Z,10.97
2018-10-02T22:42:27.389Z,11.01
2018-10-02T22:47:30.812Z,11.03
2018-10-02T22:52:34.432Z,11.07
2018-10-02T22:57:37.976Z,11.06
2018-10-02T23:02:41.301Z,11.10
2018-10-02T23:07:44.601Z,11.09
2018-10-02T23:12:47.921Z,11.06
2018-10-02T23:17:51.253Z,11.04
2018-10-02T23:22:54.593Z,11.00
2018-10-02T23:27:57.887Z,10.96
2018-10-02T23:33:01.189Z,10.92
2018-10-02T23:38:04.504Z,10.89
2018-10-02T23:43:07.888Z,10.89
2018-10-02T23:48:11.189Z,10.87
2018-10-02T23:53:14.511Z,10.87
2018-10-02T23:58:17.855Z,10.88
